THY250 EDDK-LOWG
Flight info
| Callsign | THY250 |
|---|---|
| Flight time | N/A |
| Altitude | 33000 |
| Route | KUMIK2Q KUMIK Y854 BOMBI T104 ELMOX/N0450F310 T104 WLD/N0448F350 T702 BADIT DCT LEOBE LEOBE2M |
| Aircraft | A320/M-SDE3FGHIRWY/LB1 |
Departure
| Time | 2026-05-06 21:48 |
|---|---|
| Airport | Cologne Bonn Airport (EDDK) |
Arrival
| Time | N/A |
|---|---|
| Airport | Graz Airport (LOWG) |
| Time | Latitude | Longitude | Altitude | Speed | Heading |
|---|---|---|---|---|---|
| 2026-05-06 21:23 | 50.87806 | 7.12402 | 230 ft | 0 kts | 288° |
| 2026-05-06 21:40 | 50.87805 | 7.12404 | 230 ft | 2 kts | 288° |
| 2026-05-06 21:40 | 50.87798 | 7.12443 | 231 ft | 4 kts | 285° |
| 2026-05-06 21:41 | 50.87791 | 7.12485 | 232 ft | 4 kts | 284° |
| 2026-05-06 21:41 | 50.87784 | 7.12525 | 230 ft | 4 kts | 297° |
| 2026-05-06 21:41 | 50.87771 | 7.12549 | 233 ft | 3 kts | 8° |
| 2026-05-06 21:41 | 50.87768 | 7.12549 | 233 ft | 0 kts | 18° |
| 2026-05-06 21:45 | 50.87787 | 7.12559 | 231 ft | 5 kts | 17° |
| 2026-05-06 21:45 | 50.87840 | 7.12585 | 230 ft | 11 kts | 18° |
| 2026-05-06 21:45 | 50.87927 | 7.12630 | 230 ft | 15 kts | 20° |
| 2026-05-06 21:46 | 50.87984 | 7.12707 | 232 ft | 12 kts | 60° |
| 2026-05-06 21:46 | 50.88002 | 7.12797 | 235 ft | 0 kts | 78° |
| 2026-05-06 21:46 | 50.88002 | 7.12800 | 235 ft | 3 kts | 78° |
| 2026-05-06 21:46 | 50.88008 | 7.12898 | 237 ft | 14 kts | 96° |
| 2026-05-06 21:47 | 50.87962 | 7.13031 | 240 ft | 14 kts | 136° |
| 2026-05-06 21:47 | 50.87836 | 7.13216 | 244 ft | 52 kts | 137° |
| 2026-05-06 21:47 | 50.87410 | 7.13833 | 247 ft | 111 kts | 137° |
| 2026-05-06 21:47 | 50.86735 | 7.14815 | 257 ft | 151 kts | 137° |
| 2026-05-06 21:48 | 50.85902 | 7.16015 | 488 ft | 165 kts | 137° |
| 2026-05-06 21:48 | 50.85047 | 7.17220 | 1011 ft | 166 kts | 137° |
| 2026-05-06 21:48 | 50.84169 | 7.18451 | 1598 ft | 169 kts | 135° |
| 2026-05-06 21:48 | 50.83280 | 7.19704 | 2071 ft | 176 kts | 135° |
| 2026-05-06 21:49 | 50.82325 | 7.21099 | 2279 ft | 197 kts | 129° |
| 2026-05-06 21:49 | 50.81605 | 7.23044 | 2493 ft | 214 kts | 103° |
| 2026-05-06 21:49 | 50.81353 | 7.25391 | 2997 ft | 225 kts | 94° |
| 2026-05-06 21:49 | 50.81138 | 7.27973 | 3333 ft | 249 kts | 95° |
| 2026-05-06 21:50 | 50.80897 | 7.30777 | 3868 ft | 263 kts | 95° |
| 2026-05-06 21:50 | 50.80643 | 7.33666 | 4726 ft | 267 kts | 96° |
| 2026-05-06 21:50 | 50.80384 | 7.36600 | 5538 ft | 271 kts | 95° |
| 2026-05-06 21:50 | 50.80121 | 7.39563 | 6388 ft | 274 kts | 95° |
| 2026-05-06 21:51 | 50.79854 | 7.42564 | 7162 ft | 278 kts | 95° |
| 2026-05-06 21:51 | 50.79587 | 7.45563 | 7940 ft | 281 kts | 95° |
| 2026-05-06 21:51 | 50.79310 | 7.48650 | 8709 ft | 285 kts | 95° |
| 2026-05-06 21:51 | 50.79030 | 7.51775 | 9466 ft | 289 kts | 96° |
| 2026-05-06 21:52 | 50.78748 | 7.54941 | 10151 ft | 295 kts | 96° |
| 2026-05-06 21:52 | 50.78513 | 7.58283 | 10351 ft | 317 kts | 90° |
| 2026-05-06 21:52 | 50.78628 | 7.61879 | 10485 ft | 338 kts | 80° |
| 2026-05-06 21:52 | 50.79013 | 7.65622 | 10826 ft | 350 kts | 78° |
| 2026-05-06 21:53 | 50.79437 | 7.69447 | 11389 ft | 356 kts | 78° |
| 2026-05-06 21:53 | 50.79879 | 7.73320 | 11972 ft | 360 kts | 78° |
| 2026-05-06 21:53 | 50.80330 | 7.77229 | 12567 ft | 364 kts | 78° |
| 2026-05-06 21:53 | 50.80786 | 7.81202 | 13173 ft | 368 kts | 79° |
| 2026-05-06 21:54 | 50.81239 | 7.85200 | 13752 ft | 372 kts | 79° |
| 2026-05-06 21:54 | 50.81690 | 7.89252 | 14302 ft | 376 kts | 79° |
| 2026-05-06 21:54 | 50.82138 | 7.93340 | 14820 ft | 379 kts | 79° |
| 2026-05-06 21:54 | 50.82547 | 7.97486 | 15328 ft | 383 kts | 85° |
| 2026-05-06 21:55 | 50.82444 | 8.01698 | 15811 ft | 387 kts | 100° |
| 2026-05-06 21:55 | 50.81688 | 8.05787 | 16287 ft | 389 kts | 115° |
| 2026-05-06 21:55 | 50.80312 | 8.09473 | 16804 ft | 390 kts | 129° |
| 2026-05-06 21:55 | 50.78413 | 8.12526 | 17336 ft | 391 kts | 143° |
| 2026-05-06 21:56 | 50.76151 | 8.14925 | 17873 ft | 393 kts | 149° |
| 2026-05-06 21:56 | 50.73838 | 8.17248 | 18370 ft | 396 kts | 149° |
| 2026-05-06 21:56 | 50.71507 | 8.19585 | 18861 ft | 398 kts | 149° |
| 2026-05-06 21:56 | 50.69163 | 8.21930 | 19352 ft | 400 kts | 149° |
| 2026-05-06 21:57 | 50.66803 | 8.24289 | 19858 ft | 403 kts | 149° |
| 2026-05-06 21:57 | 50.64432 | 8.26665 | 20343 ft | 405 kts | 149° |
| 2026-05-06 21:57 | 50.62051 | 8.29060 | 20811 ft | 407 kts | 149° |
| 2026-05-06 21:57 | 50.59661 | 8.31460 | 21270 ft | 409 kts | 149° |
| 2026-05-06 21:58 | 50.57280 | 8.33846 | 21701 ft | 412 kts | 149° |
| 2026-05-06 21:58 | 50.54858 | 8.36267 | 22119 ft | 414 kts | 149° |
| 2026-05-06 21:58 | 50.52419 | 8.38695 | 22553 ft | 416 kts | 148° |
| 2026-05-06 21:58 | 50.49975 | 8.41126 | 23084 ft | 415 kts | 148° |
| 2026-05-06 21:59 | 50.47530 | 8.43556 | 23528 ft | 417 kts | 148° |
| 2026-05-06 21:59 | 50.45074 | 8.45993 | 23889 ft | 418 kts | 148° |
| 2026-05-06 21:59 | 50.42609 | 8.48435 | 24260 ft | 420 kts | 148° |
| 2026-05-06 21:59 | 50.40135 | 8.50882 | 24612 ft | 421 kts | 148° |
| 2026-05-06 22:00 | 50.37653 | 8.53326 | 24957 ft | 422 kts | 149° |
| 2026-05-06 22:00 | 50.35123 | 8.55656 | 25312 ft | 423 kts | 152° |
| 2026-05-06 22:00 | 50.32532 | 8.57870 | 25674 ft | 424 kts | 152° |
| 2026-05-06 22:00 | 50.29909 | 8.60012 | 26038 ft | 426 kts | 153° |
| 2026-05-06 22:01 | 50.27273 | 8.62129 | 26414 ft | 427 kts | 153° |
| 2026-05-06 22:01 | 50.24621 | 8.64270 | 26770 ft | 429 kts | 153° |
| 2026-05-06 22:01 | 50.21974 | 8.66436 | 27122 ft | 430 kts | 152° |
| 2026-05-06 22:01 | 50.19326 | 8.68633 | 27497 ft | 431 kts | 152° |
| 2026-05-06 22:02 | 50.16690 | 8.70835 | 27983 ft | 429 kts | 152° |
| 2026-05-06 22:02 | 50.14069 | 8.73027 | 28513 ft | 427 kts | 152° |
| 2026-05-06 22:02 | 50.11459 | 8.75205 | 29013 ft | 425 kts | 152° |
| 2026-05-06 22:02 | 50.08849 | 8.77380 | 29518 ft | 423 kts | 152° |
| 2026-05-06 22:03 | 50.06333 | 8.79598 | 30010 ft | 421 kts | 146° |
| 2026-05-06 22:03 | 50.04010 | 8.82360 | 30416 ft | 419 kts | 138° |
| 2026-05-06 22:03 | 50.01860 | 8.85405 | 30784 ft | 419 kts | 138° |
| 2026-05-06 22:03 | 49.99707 | 8.88457 | 31145 ft | 419 kts | 138° |
| 2026-05-06 22:04 | 49.97546 | 8.91518 | 31509 ft | 419 kts | 139° |
| 2026-05-06 22:04 | 49.95392 | 8.94565 | 31862 ft | 420 kts | 139° |
| 2026-05-06 22:04 | 49.93228 | 8.97618 | 32232 ft | 420 kts | 139° |
| 2026-05-06 22:04 | 49.91064 | 9.00667 | 32583 ft | 420 kts | 139° |
| 2026-05-06 22:05 | 49.88898 | 9.03719 | 32830 ft | 421 kts | 139° |
| 2026-05-06 22:05 | 49.86713 | 9.06790 | 32874 ft | 428 kts | 140° |
| 2026-05-06 22:05 | 49.82265 | 9.13018 | 32872 ft | 432 kts | 140° |
| 2026-05-06 22:06 | 49.77794 | 9.19253 | 32873 ft | 433 kts | 140° |
| 2026-05-06 22:06 | 49.73321 | 9.25488 | 32871 ft | 433 kts | 140° |
| 2026-05-06 22:07 | 49.69597 | 9.30669 | 32871 ft | 433 kts | 140° |